Terminal Aerodrome Forecast
Issued by NWS Northern Indiana

Home | Current Version | Previous Version | Graphics & Text | Print | Product List | Glossary On
Versions: 1 2 3 4 5 6 7 8 9 10 11 12 13 14 15 16
000
FTUS43 KIWX 200500
TAFFWA
TAF
KFWA 200536Z 2006/2106 26014G20KT P6SM OVC035
      TEMPO 2006/2008 -SN=

USA.gov is the U.S. government's official web portal to all federal, state and local government web resources and services.